(°C)
11°
11°
11°
11°
13°
13°
13°
(°C)
10°
11°
12°
11°
جنوب
SSE
SE
ESE
ESE
جنوب
SW
(كم/سا)
15-36
11-33
8-30
7-30
7-29
7-29
9-34
(مم)
3
1.5
1.2
1.2
0
0
0
(%)
67
83
91
83
71
37
37

مستوى ارتفاع الشمس

/ 52.1°
sun-icon
UV 3
03:09
20:10
هلال المساء (338°)
02:28
17:56

متر ل55.61°شمال 49.28°شرق (UWKD)

الوقت الشروط درجة الحرارة/
نقطة الندى
رياح مجال رؤية حالة الطقس غيوم الضغط تغيير خام
MVFR 11°C / 9°C 210º variable 170º to 230º 12kt 9000m Light Showers Rain 3.00mm precipitation Vertical Visibility of 0ft. 1004 No Significant change. Runway 29: Wet or puddles, with <1mm, friction coefficient 0.50. UWKD 280930Z 21006MPS 170V230 9000 -SHRA BKN012CB 11/09 Q1004 R29/2/0050 NOSIG RMK QFE742/0990
VFR 11°C / 9°C 230º variable 170º to 260º 10kt >10km Light Showers Rain 3.00mm precipitation Vertical Visibility of 0ft. 1004 No Significant change. Runway 29: Wet or puddles, with <1mm, friction coefficient 0.50. UWKD 280900Z 23005MPS 170V260 9999 -SHRA BKN050CB 11/09 Q1004 R29/2/0050 NOSIG RMK QFE742/0989
MVFR 12°C / 8°C 230º 14kt Gust 23kt >10km Light Showers Rain 3.00mm precipitation Vertical Visibility of 0ft. 1004 No Significant change UWKD 280830Z 23007G12MPS 9999 -SHRA BKN030CB 12/08 Q1004 R29/CLRD70 NOSIG RMK QFE742/0989
MVFR 13°C / 8°C 220º 12kt Gust 21kt >10km - Broken Clouds 2400ft 1004 No Significant change UWKD 280800Z 22006G11MPS 9999 BKN024 13/08 Q1004 R29/70D NOSIG RMK QFE742/0989
VFR 14°C / 9°C 220º variable 170º to 240º 14kt >10km - Broken Clouds 3300ft 1004 No Significant change UWKD 280730Z 22007MPS 170V240 9999 BKN033 14/09 Q1004 R29/70D NOSIG RMK QFE742/0989
MVFR 14°C / 9°C 220º 12kt >10km - Broken Clouds 2000ft 1003 No Significant change UWKD 280700Z 22006MPS 9999 BKN020 14/09 Q1003 R29/CLRD70 NOSIG RMK QFE741/0989
MVFR 14°C / 10°C 230º variable 190º to 270º 10kt >10km - Broken Clouds 2200ft 1003 No Significant change UWKD 280630Z 23005MPS 190V270 9999 BKN022 14/10 Q1003 R29/CLRD70 NOSIG RMK QFE741/0989
MVFR 14°C / 9°C 220º 10kt >10km - Broken Clouds 2000ft 1003 No Significant change UWKD 280600Z 22005MPS 9999 BKN020 14/09 Q1003 R29/CLRD70 NOSIG RMK QFE741/0988
MVFR 13°C / 9°C 220º variable 200º to 260º 8kt >10km - Broken Clouds 1800ft 1003 No Significant change UWKD 280530Z 22004MPS 200V260 9999 BKN018 13/09 Q1003 R29/70D NOSIG RMK QFE741/0988
MVFR 13°C / 9°C 230º variable 200º to 260º 12kt >10km - Broken Clouds 1500ft 1003 No Significant change. Runway 29: Wet or puddles, with <1mm, friction coefficient 0.60. UWKD 280500Z 23006MPS 200V260 9999 BKN015 13/09 Q1003 R29/2/0060 NOSIG RMK QFE741/0988
MVFR 12°C / 9°C 230º variable 190º to 250º 14kt >10km - Broken Clouds 2200ft 1002 No Significant change. Runway 29: Wet or puddles, with <1mm, friction coefficient 0.60. UWKD 280430Z 23007MPS 190V250 9999 BKN022 12/09 Q1002 R29/2/0060 NOSIG RMK QFE741/0988
MVFR 12°C / 9°C 240º variable 200º to 260º 10kt >10km - Broken Clouds 1500ft 1002 No Significant change. Runway 29: Wet or puddles, with <1mm, friction coefficient 0.60. UWKD 280400Z 24005MPS 200V260 9999 BKN015 12/09 Q1002 R29/2/0060 NOSIG RMK QFE741/0988
VFR 12°C / 9°C 240º variable 200º to 270º 12kt >10km - Scattered Clouds 2500ft 1002 No Significant change. Runway 29: Wet or puddles, with <1mm, friction coefficient 0.50. UWKD 280330Z 24006MPS 200V270 9999 SCT025 12/09 Q1002 R29/2/0050 NOSIG RMK QFE740/0987
VFR 12°C / 9°C 240º 12kt >10km - Clouds and Visibility OK 1002 No Significant change. Runway 29: Wet or puddles, with <1mm, friction coefficient 0.50. UWKD 280300Z 24006MPS CAVOK 12/09 Q1002 R29/2/0050 NOSIG RMK QFE740/0987
VFR 11°C / 9°C 240º variable 200º to 260º 10kt >10km - Clouds and Visibility OK 1001 No Significant change. Runway 29: Wet or puddles, with <1mm, friction coefficient 0.50. UWKD 280230Z 24005MPS 200V260 CAVOK 11/09 Q1001 R29/2/0050 NOSIG RMK QFE740/0987
VFR 10°C / 8°C 240º variable 180º to 260º 10kt >10km - Clouds and Visibility OK 1001 No Significant change. Runway 29: Wet or puddles, with <1mm, friction coefficient 0.50. UWKD 280200Z 24005MPS 180V260 CAVOK 10/08 Q1001 R29/2/0050 NOSIG RMK QFE740/0986
VFR 10°C / 8°C 240º variable 200º to 270º 8kt >10km - Clouds and Visibility OK 1001 No Significant change. Runway 29: Wet or puddles, with <1mm, friction coefficient 0.50. UWKD 280130Z 24004MPS 200V270 CAVOK 10/08 Q1001 R29/2/0050 NOSIG RMK QFE739/0986
VFR 10°C / 8°C 240º 10kt >10km Light Rain 1.00mm precipitation Vertical Visibility of 0ft. 1000 No Significant change. Runway 29: Wet or puddles, with <1mm, friction coefficient 0.50. UWKD 280100Z 24005MPS 9999 -RA BKN040 10/08 Q1000 R29/2/0050 NOSIG RMK QFE739/0986
MVFR 10°C / 8°C 240º variable 200º to 260º 8kt >10km Light Rain 1.00mm precipitation Vertical Visibility of 0ft. 1000 No Significant change. Runway 29: Wet or puddles, with <1mm, friction coefficient 0.50. UWKD 280030Z 24004MPS 200V260 9999 -RA BKN022 10/08 Q1000 R29/2/0050 NOSIG RMK QFE739/0986
MVFR 10°C / 8°C 220º 10kt >10km Light Rain 1.00mm precipitation Vertical Visibility of 0ft. 1000 No Significant change. Runway 11: Wet or puddles, with <1mm, friction coefficient 0.50. UWKD 280000Z 22005MPS 9999 -RA BKN017 10/08 Q1000 R11/2/0050 NOSIG RMK QFE740/0987
MVFR 10°C / 9°C 220º variable 190º to 250º 10kt >10km Light Rain 1.00mm precipitation Vertical Visibility of 0ft. 1000 No Significant change. Runway 11: Wet or puddles, with <1mm, friction coefficient 0.50. UWKD 272330Z 22005MPS 190V250 9999 -RA BKN020 10/09 Q1000 R11/2/0050 NOSIG RMK QFE740/0986
IFR 10°C / 9°C 230º 10kt 8000m Light Rain 1.00mm precipitation Vertical Visibility of 0ft. 1000 No Significant change. Runway 11: Wet or puddles, with <1mm, friction coefficient 0.50. UWKD 272300Z 23005MPS 8000 -RA BKN009 10/09 Q1000 R11/2/0050 NOSIG RMK QFE740/0986
MVFR 10°C / 9°C 220º 10kt >10km - Broken Clouds 2500ft 999 No Significant change. Runway 11: Wet or puddles, with <1mm, friction coefficient 0.50. UWKD 272230Z 22005MPS 9999 BKN025 10/09 Q0999 R11/2/0050 NOSIG RMK QFE739/0986
IFR 11°C / 9°C 230º 12kt 9000m Light Rain 1.00mm precipitation Vertical Visibility of 0ft. 999 No Significant change. Runway 11: Wet or puddles, with <1mm, friction coefficient 0.50. UWKD 272200Z 23006MPS 9000 -RA BKN009 11/09 Q0999 R11/2/0050 NOSIG RMK QFE739/0986

MVFR

11°C / 9°C

[أكثر]
رياح 210º variable 170º to 230º 12kt
مجال رؤية 9000m
حالة الطقس Light Showers Rain 3.00mm precipitation
غيوم Vertical Visibility of 0ft.
الضغط 1004
تغيير No Significant change. Runway 29: Wet or puddles, with <1mm, friction coefficient 0.50.
خام UWKD 280930Z 21006MPS 170V230 9000 -SHRA BKN012CB 11/09 Q1004 R29/2/0050 NOSIG RMK QFE742/0990

VFR

11°C / 9°C

[أكثر]
رياح 230º variable 170º to 260º 10kt
مجال رؤية >10km
حالة الطقس Light Showers Rain 3.00mm precipitation
غيوم Vertical Visibility of 0ft.
الضغط 1004
تغيير No Significant change. Runway 29: Wet or puddles, with <1mm, friction coefficient 0.50.
خام UWKD 280900Z 23005MPS 170V260 9999 -SHRA BKN050CB 11/09 Q1004 R29/2/0050 NOSIG RMK QFE742/0989

MVFR

12°C / 8°C

[أكثر]
رياح 230º 14kt Gust 23kt
مجال رؤية >10km
حالة الطقس Light Showers Rain 3.00mm precipitation
غيوم Vertical Visibility of 0ft.
الضغط 1004
تغيير No Significant change
خام UWKD 280830Z 23007G12MPS 9999 -SHRA BKN030CB 12/08 Q1004 R29/CLRD70 NOSIG RMK QFE742/0989

MVFR

13°C / 8°C

[أكثر]
رياح 220º 12kt Gust 21kt
مجال رؤية >10km
حالة الطقس -
غيوم Broken Clouds 2400ft
الضغط 1004
تغيير No Significant change
خام UWKD 280800Z 22006G11MPS 9999 BKN024 13/08 Q1004 R29/70D NOSIG RMK QFE742/0989

VFR

14°C / 9°C

[أكثر]
رياح 220º variable 170º to 240º 14kt
مجال رؤية >10km
حالة الطقس -
غيوم Broken Clouds 3300ft
الضغط 1004
تغيير No Significant change
خام UWKD 280730Z 22007MPS 170V240 9999 BKN033 14/09 Q1004 R29/70D NOSIG RMK QFE742/0989

MVFR

14°C / 9°C

[أكثر]
رياح 220º 12kt
مجال رؤية >10km
حالة الطقس -
غيوم Broken Clouds 2000ft
الضغط 1003
تغيير No Significant change
خام UWKD 280700Z 22006MPS 9999 BKN020 14/09 Q1003 R29/CLRD70 NOSIG RMK QFE741/0989

MVFR

14°C / 10°C

[أكثر]
رياح 230º variable 190º to 270º 10kt
مجال رؤية >10km
حالة الطقس -
غيوم Broken Clouds 2200ft
الضغط 1003
تغيير No Significant change
خام UWKD 280630Z 23005MPS 190V270 9999 BKN022 14/10 Q1003 R29/CLRD70 NOSIG RMK QFE741/0989

MVFR

14°C / 9°C

[أكثر]
رياح 220º 10kt
مجال رؤية >10km
حالة الطقس -
غيوم Broken Clouds 2000ft
الضغط 1003
تغيير No Significant change
خام UWKD 280600Z 22005MPS 9999 BKN020 14/09 Q1003 R29/CLRD70 NOSIG RMK QFE741/0988

MVFR

13°C / 9°C

[أكثر]
رياح 220º variable 200º to 260º 8kt
مجال رؤية >10km
حالة الطقس -
غيوم Broken Clouds 1800ft
الضغط 1003
تغيير No Significant change
خام UWKD 280530Z 22004MPS 200V260 9999 BKN018 13/09 Q1003 R29/70D NOSIG RMK QFE741/0988

MVFR

13°C / 9°C

[أكثر]
رياح 230º variable 200º to 260º 12kt
مجال رؤية >10km
حالة الطقس -
غيوم Broken Clouds 1500ft
الضغط 1003
تغيير No Significant change. Runway 29: Wet or puddles, with <1mm, friction coefficient 0.60.
خام UWKD 280500Z 23006MPS 200V260 9999 BKN015 13/09 Q1003 R29/2/0060 NOSIG RMK QFE741/0988

MVFR

12°C / 9°C

[أكثر]
رياح 230º variable 190º to 250º 14kt
مجال رؤية >10km
حالة الطقس -
غيوم Broken Clouds 2200ft
الضغط 1002
تغيير No Significant change. Runway 29: Wet or puddles, with <1mm, friction coefficient 0.60.
خام UWKD 280430Z 23007MPS 190V250 9999 BKN022 12/09 Q1002 R29/2/0060 NOSIG RMK QFE741/0988

MVFR

12°C / 9°C

[أكثر]
رياح 240º variable 200º to 260º 10kt
مجال رؤية >10km
حالة الطقس -
غيوم Broken Clouds 1500ft
الضغط 1002
تغيير No Significant change. Runway 29: Wet or puddles, with <1mm, friction coefficient 0.60.
خام UWKD 280400Z 24005MPS 200V260 9999 BKN015 12/09 Q1002 R29/2/0060 NOSIG RMK QFE741/0988

VFR

12°C / 9°C

[أكثر]
رياح 240º variable 200º to 270º 12kt
مجال رؤية >10km
حالة الطقس -
غيوم Scattered Clouds 2500ft
الضغط 1002
تغيير No Significant change. Runway 29: Wet or puddles, with <1mm, friction coefficient 0.50.
خام UWKD 280330Z 24006MPS 200V270 9999 SCT025 12/09 Q1002 R29/2/0050 NOSIG RMK QFE740/0987

VFR

12°C / 9°C

[أكثر]
رياح 240º 12kt
مجال رؤية >10km
حالة الطقس -
غيوم Clouds and Visibility OK
الضغط 1002
تغيير No Significant change. Runway 29: Wet or puddles, with <1mm, friction coefficient 0.50.
خام UWKD 280300Z 24006MPS CAVOK 12/09 Q1002 R29/2/0050 NOSIG RMK QFE740/0987

VFR

11°C / 9°C

[أكثر]
رياح 240º variable 200º to 260º 10kt
مجال رؤية >10km
حالة الطقس -
غيوم Clouds and Visibility OK
الضغط 1001
تغيير No Significant change. Runway 29: Wet or puddles, with <1mm, friction coefficient 0.50.
خام UWKD 280230Z 24005MPS 200V260 CAVOK 11/09 Q1001 R29/2/0050 NOSIG RMK QFE740/0987

VFR

10°C / 8°C

[أكثر]
رياح 240º variable 180º to 260º 10kt
مجال رؤية >10km
حالة الطقس -
غيوم Clouds and Visibility OK
الضغط 1001
تغيير No Significant change. Runway 29: Wet or puddles, with <1mm, friction coefficient 0.50.
خام UWKD 280200Z 24005MPS 180V260 CAVOK 10/08 Q1001 R29/2/0050 NOSIG RMK QFE740/0986

VFR

10°C / 8°C

[أكثر]
رياح 240º variable 200º to 270º 8kt
مجال رؤية >10km
حالة الطقس -
غيوم Clouds and Visibility OK
الضغط 1001
تغيير No Significant change. Runway 29: Wet or puddles, with <1mm, friction coefficient 0.50.
خام UWKD 280130Z 24004MPS 200V270 CAVOK 10/08 Q1001 R29/2/0050 NOSIG RMK QFE739/0986

VFR

10°C / 8°C

[أكثر]
رياح 240º 10kt
مجال رؤية >10km
حالة الطقس Light Rain 1.00mm precipitation
غيوم Vertical Visibility of 0ft.
الضغط 1000
تغيير No Significant change. Runway 29: Wet or puddles, with <1mm, friction coefficient 0.50.
خام UWKD 280100Z 24005MPS 9999 -RA BKN040 10/08 Q1000 R29/2/0050 NOSIG RMK QFE739/0986

MVFR

10°C / 8°C

[أكثر]
رياح 240º variable 200º to 260º 8kt
مجال رؤية >10km
حالة الطقس Light Rain 1.00mm precipitation
غيوم Vertical Visibility of 0ft.
الضغط 1000
تغيير No Significant change. Runway 29: Wet or puddles, with <1mm, friction coefficient 0.50.
خام UWKD 280030Z 24004MPS 200V260 9999 -RA BKN022 10/08 Q1000 R29/2/0050 NOSIG RMK QFE739/0986

MVFR

10°C / 8°C

[أكثر]
رياح 220º 10kt
مجال رؤية >10km
حالة الطقس Light Rain 1.00mm precipitation
غيوم Vertical Visibility of 0ft.
الضغط 1000
تغيير No Significant change. Runway 11: Wet or puddles, with <1mm, friction coefficient 0.50.
خام UWKD 280000Z 22005MPS 9999 -RA BKN017 10/08 Q1000 R11/2/0050 NOSIG RMK QFE740/0987

MVFR

10°C / 9°C

[أكثر]
رياح 220º variable 190º to 250º 10kt
مجال رؤية >10km
حالة الطقس Light Rain 1.00mm precipitation
غيوم Vertical Visibility of 0ft.
الضغط 1000
تغيير No Significant change. Runway 11: Wet or puddles, with <1mm, friction coefficient 0.50.
خام UWKD 272330Z 22005MPS 190V250 9999 -RA BKN020 10/09 Q1000 R11/2/0050 NOSIG RMK QFE740/0986

IFR

10°C / 9°C

[أكثر]
رياح 230º 10kt
مجال رؤية 8000m
حالة الطقس Light Rain 1.00mm precipitation
غيوم Vertical Visibility of 0ft.
الضغط 1000
تغيير No Significant change. Runway 11: Wet or puddles, with <1mm, friction coefficient 0.50.
خام UWKD 272300Z 23005MPS 8000 -RA BKN009 10/09 Q1000 R11/2/0050 NOSIG RMK QFE740/0986

MVFR

10°C / 9°C

[أكثر]
رياح 220º 10kt
مجال رؤية >10km
حالة الطقس -
غيوم Broken Clouds 2500ft
الضغط 999
تغيير No Significant change. Runway 11: Wet or puddles, with <1mm, friction coefficient 0.50.
خام UWKD 272230Z 22005MPS 9999 BKN025 10/09 Q0999 R11/2/0050 NOSIG RMK QFE739/0986

IFR

11°C / 9°C

[أكثر]
رياح 230º 12kt
مجال رؤية 9000m
حالة الطقس Light Rain 1.00mm precipitation
غيوم Vertical Visibility of 0ft.
الضغط 999
تغيير No Significant change. Runway 11: Wet or puddles, with <1mm, friction coefficient 0.50.
خام UWKD 272200Z 23006MPS 9000 -RA BKN009 11/09 Q0999 R11/2/0050 NOSIG RMK QFE739/0986

انقر ل55.61°شمال 49.28°شرق (UWKD)

From till


Maximum Temperature 15ºC on . Minimum Temperature 9ºC on .
From till Wind 210º 16kt. Gust 29kt. Visibility 10km or more. Broken Clouds 1600ft.
Temporarly from till Visibility 3100m. Light Showers Rain . Scattered Clouds 600ft. Broken Clouds 2000ft.

خام: TAF UWKD 280759Z 2809/2909 21008G15MPS 9999 BKN016 TX15/2812Z TN09/2901Z TEMPO 2809/2818 3100 -SHRA SCT006 BKN020CB

رادار وهطول الأمطار التنبؤ الآني ل55.61°شمال 49.28°شرق

رذاذ
ضوء
معتدل
ثقيل
ثقيل جدا
وابل

مؤشر المكان يشير الى 55.61°شمال 49.28°شرق. تظهر في هذه الرسوم المتحركة هطول الامطار بالرادار للساعة الماضية, و توقعات 1h. رذاذ أو تساقط ثلوج خفيف قد يكون غير مرئي للرادار. كثافة هطول الأمطار مرمزة بالألوان وتتراوح من الأزرق الفاتح إلى البرتقالي.

صور الأقمار الصناعية الملتقطة و الأمطار حالياً ل55.61°شمال 49.28°شرق

المؤشر يدل على موقع 55.61°شمال 49.28°شرق. [أكثر]

تجمع صورة الأقمار الصناعية في الوقت الفعلي بين الضوء المرئي أثناء النهار والأشعة تحت الحمراء أثناء الليل. لا تبدو الصورة مظلمة ليلاً، لأن الأشعة تحت الحمراء يمكنها الكشف عن الاختلافات في درجة الحرارة. لسوء الحظ ، يصعب التمييز بين السحب المنخفضة والضباب ودرجات حرارة الأرض ، وبالتالي يمكن أن تكون الصور غير مرئية تقريبًا أثناء الليل. يتم تحديث صور الأقمار الصناعية Meteosat الخاصة بأوروبا في الوقت الفعلي كل 5 دقائق، بينما يتم تحديث صور GOES-16 / GOES-17 (أمريكا الشمالية والجنوبية) و Himawari (آسيا) كل 10 دقائق.

حقوق النسخ 2022 EUMETSAT / meteoblue. / حقوق النسخ 2022 meteoblue

العودة الى الأعلى